Airport View

Enter ICAO identifier to see the current METAR for that AWOS.

KFNL for example

KCTB 290456Z AUTO 31007KT 10SM OVC070 11/08 A3012

29 Aug 2014 05:28

Frequency: 119.025

Phone: 406-873-2939

Other Area AWOS: K8S0 - CWRY - CWFJ - CYQL

TAF AMD KCTB 290217Z 2902/2924 35018G25KT P6SM OVC010 TEMPO 2903/2906 -TSRA BKN050CB FM290700 35012KT P6SM OVC018 FM291100 VRB05KT P6SM BKN010 FM291400 16008KT P6SM BKN250 FM292000 20014KT P6SM FEW090